High Glow — 3EAV5 — position and weather

sailwx.info

Track history (hours):
 
Tides and Currents Weather Stations Pressure Air Temp Water Temp Dewpoint Dewpoint Depression Visibility Wind Speed Wind Dir Waves Ship Positions

High Glow

Last reported at 2018-Aug-18 13:59 UTC. Time now 2018-Aug-18 14:14 UTC.
Position N 52°24' E 004°49'.

Length 180 m; draft 7.7 m.

Type: Ship. MMSI: 371179000.

Date/timePositionNaut miles runAvg speedWind from/ knotsBaromVisibWave heightAir tempDewpointWater temp
2018-Aug-18 13:59N 52°24' E 004°49'0 0.0
2018-Aug-18 13:08N 52°24' E 004°49'0 0.0
2018-Aug-18 12:58N 52°24' E 004°49'0 0.0
2018-Aug-18 12:28N 52°24' E 004°49'0 0.0
2018-Aug-18 11:59N 52°24' E 004°49'0 0.0
2018-Aug-18 11:25N 52°24' E 004°49'0 0.0
2018-Aug-18 10:59N 52°24' E 004°49'0 0.0
2018-Aug-18 10:28N 52°24' E 004°49'0 0.0
2018-Aug-18 09:55N 52°24' E 004°49'0 0.0
2018-Aug-18 09:28N 52°24' E 004°49'0 0.0
2018-Aug-18 08:58N 52°24' E 004°49'0 0.0
2018-Aug-18 08:29N 52°24' E 004°49'0 0.0
2018-Aug-18 07:55N 52°24' E 004°49'0 0.0
2018-Aug-18 07:29N 52°24' E 004°49'0 0.0
2018-Aug-18 06:56N 52°24' E 004°49'0 0.0
2018-Aug-18 06:19N 52°24' E 004°49'0 0.0
2018-Aug-18 05:56N 52°24' E 004°49'0 0.0
2018-Aug-18 05:29N 52°24' E 004°49'0 0.0
2018-Aug-18 04:58N 52°24' E 004°49'0 0.0
2018-Aug-18 04:29N 52°24' E 004°49'0 0.0
2018-Aug-18 03:59N 52°24' E 004°49'0 0.0
2018-Aug-18 03:29N 52°24' E 004°49'0 0.0
2018-Aug-18 02:58N 52°24' E 004°49'0 0.0
2018-Aug-18 02:28N 52°24' E 004°49'0 0.0
2018-Aug-18 01:58N 52°24' E 004°49'0 0.0
2018-Aug-18 01:29N 52°24' E 004°49'0 0.0
2018-Aug-18 00:58N 52°24' E 004°49'0 0.0
2018-Aug-18 00:29N 52°24' E 004°49'0 0.0
2018-Aug-17 23:58N 52°24' E 004°49'0 0.0
2018-Aug-17 23:29N 52°24' E 004°49'0 0.0
2018-Aug-17 22:59N 52°24' E 004°49'0 0.0
2018-Aug-17 22:30N 52°24' E 004°49'0 0.6
2018-Aug-17 22:00N 52°25' E 004°49'2 4.9
2018-Aug-17 21:30N 52°26' E 004°46'3 6.9
2018-Aug-17 21:00N 52°27' E 004°41'3 5.1
2018-Aug-17 20:30N 52°28' E 004°36'0 0.7
2018-Aug-17 20:00N 52°28' E 004°36'2 3.5
2018-Aug-17 19:30N 52°28' E 004°33'5 9.8
2018-Aug-17 19:00N 52°28' E 004°25'4 8.0
2018-Aug-17 18:30N 52°29' E 004°18'4 7.6
2018-Aug-17 18:00N 52°29' E 004°12'4 8.9
2018-Aug-17 17:30N 52°29' E 004°05'4 8.0
2018-Aug-17 17:00N 52°27' E 003°59'2 4.6
2018-Aug-17 16:30N 52°26' E 003°56'0 0.1
2018-Aug-17 16:00N 52°26' E 003°57'0 0.0
2018-Aug-17 15:30N 52°26' E 003°56'0 0.0
2018-Aug-17 15:00N 52°26' E 003°56'0 0.0
2018-Aug-17 14:30N 52°26' E 003°56'0 0.0
2018-Aug-17 13:30N 52°26' E 003°56'0 0.0
2018-Aug-17 13:00N 52°26' E 003°56'0 0.1
2018-Aug-17 12:30N 52°26' E 003°56'0 0.0
2018-Aug-17 11:57N 52°26' E 003°56'0 0.0
2018-Aug-17 11:30N 52°26' E 003°56'0 0.1
2018-Aug-17 11:00N 52°26' E 003°57'0 0.1
2018-Aug-17 10:27N 52°26' E 003°57'0 0.1
2018-Aug-17 09:57N 52°26' E 003°57'0 0.1
2018-Aug-17 09:30N 52°26' E 003°57'0 0.1
2018-Aug-17 09:00N 52°26' E 003°57'0 0.0
2018-Aug-17 08:30N 52°26' E 003°57'0 0.0
2018-Aug-17 08:00N 52°26' E 003°57'0 0.0
2018-Aug-17 07:30N 52°26' E 003°57'0 0.0
2018-Aug-17 07:00N 52°26' E 003°57'0 0.0
2018-Aug-17 06:30N 52°26' E 003°57'0 0.0
2018-Aug-17 05:54N 52°26' E 003°57'0 0.0
2018-Aug-17 05:30N 52°26' E 003°57'0 0.1
2018-Aug-17 05:00N 52°26' E 003°57'0 0.1
2018-Aug-17 04:30N 52°26' E 003°57'0 0.2
2018-Aug-17 04:00N 52°26' E 003°57'0 0.1
2018-Aug-17 03:30N 52°26' E 003°57'0 0.1
2018-Aug-17 03:00N 52°26' E 003°57'0 0.0
2018-Aug-17 02:30N 52°26' E 003°56'0 0.0
2018-Aug-17 02:00N 52°26' E 003°56'0 0.0
2018-Aug-17 01:30N 52°26' E 003°56'0 0.0
2018-Aug-17 01:00N 52°26' E 003°57'0 0.0
2018-Aug-17 00:30N 52°26' E 003°57'0 0.0
2018-Aug-17 00:00N 52°26' E 003°57'0 0.0
2018-Aug-16 23:30N 52°26' E 003°57'0 0.1
2018-Aug-16 23:00N 52°26' E 003°57'0 0.1
2018-Aug-16 22:30N 52°26' E 003°57'0 0.1
2018-Aug-16 22:00N 52°26' E 003°57'0 0.1
2018-Aug-16 21:30N 52°26' E 003°57'0 0.0
2018-Aug-16 21:00N 52°26' E 003°57'0 0.1
2018-Aug-16 20:30N 52°26' E 003°57'0 0.1
2018-Aug-16 20:00N 52°26' E 003°57'0 0.0
2018-Aug-16 19:30N 52°26' E 003°57'0 0.0
2018-Aug-16 18:57N 52°26' E 003°57'0 0.0
2018-Aug-16 18:30N 52°26' E 003°57'0 0.0
2018-Aug-16 18:00N 52°26' E 003°57'0 0.0
2018-Aug-16 17:30N 52°26' E 003°57'0 0.0
2018-Aug-16 17:00N 52°26' E 003°57'0 0.2
2018-Aug-16 16:30N 52°26' E 003°57'0 0.1
2018-Aug-16 16:00N 52°26' E 003°57'0 0.1
2018-Aug-16 15:30N 52°26' E 003°57'0 0.0
2018-Aug-16 14:54N 52°26' E 003°57'0 0.1
2018-Aug-16 14:30N 52°26' E 003°57'0 0.1
2018-Aug-16 14:00N 52°26' E 003°57'0 0.1
2018-Aug-16 13:30N 52°26' E 003°57'0 0.1
2018-Aug-16 13:00N 52°26' E 003°57'0 0.0
2018-Aug-16 12:27N 52°26' E 003°57'0 0.0
2018-Aug-16 11:42N 52°26' E 003°57'0 0.0
2018-Aug-16 11:30N 52°26' E 003°57'0 0.0
2018-Aug-16 11:00N 52°26' E 003°57'0 0.0
2018-Aug-16 10:30N 52°26' E 003°57'0 0.0
2018-Aug-16 10:00N 52°26' E 003°57'0 0.0
2018-Aug-16 09:30N 52°26' E 003°57'0 0.0
2018-Aug-16 09:00N 52°26' E 003°57'0 0.1
2018-Aug-16 08:30N 52°26' E 003°57'0 0.0
2018-Aug-16 08:00N 52°26' E 003°57'0 0.0
2018-Aug-16 07:30N 52°26' E 003°57'0 0.0
2018-Aug-16 07:00N 52°26' E 003°57'0 0.0
2018-Aug-16 06:30N 52°26' E 003°57'0 0.0
2018-Aug-16 06:00N 52°26' E 003°57'0 0.0
2018-Aug-16 05:30N 52°26' E 003°57'0 0.0
2018-Aug-16 05:00N 52°26' E 003°57'0 0.0
2018-Aug-16 04:27N 52°26' E 003°57'0 0.0
2018-Aug-16 04:00N 52°26' E 003°57'0 0.1
2018-Aug-16 03:30N 52°26' E 003°57'0 0.1
2018-Aug-16 03:00N 52°26' E 003°57'0 0.0
2018-Aug-16 02:27N 52°26' E 003°57'0 0.0
2018-Aug-16 02:00N 52°26' E 003°57'0 0.1
2018-Aug-16 01:30N 52°26' E 003°57'0 0.1
2018-Aug-16 01:00N 52°26' E 003°57'0 0.0
2018-Aug-16 00:30N 52°26' E 003°57'0 0.0
2018-Aug-16 00:00N 52°26' E 003°57'0 0.0
2018-Aug-15 23:30N 52°26' E 003°57'0 0.0
2018-Aug-15 23:00N 52°26' E 003°57'0 0.0
2018-Aug-15 22:30N 52°26' E 003°57'0 0.0
2018-Aug-15 22:00N 52°26' E 003°57'0 0.1
2018-Aug-15 21:30N 52°26' E 003°57'0 0.1
2018-Aug-15 21:00N 52°26' E 003°57'0 0.1
2018-Aug-15 20:30N 52°26' E 003°57'0 0.1
2018-Aug-15 20:00N 52°26' E 003°57'0 0.0
2018-Aug-15 19:30N 52°26' E 003°57'0 0.0
2018-Aug-15 19:00N 52°26' E 003°57'0 0.1
2018-Aug-15 18:30N 52°26' E 003°57'0 0.1
2018-Aug-15 18:00N 52°26' E 003°57'0 0.1
2018-Aug-15 17:30N 52°26' E 003°57'0 0.0
2018-Aug-15 16:27N 52°26' E 003°57'0 0.0
2018-Aug-15 16:00N 52°26' E 003°57'0 0.0
2018-Aug-15 15:30N 52°26' E 003°57'0 0.1
2018-Aug-15 15:00N 52°26' E 003°57'0 0.0
2018-Aug-15 14:30N 52°26' E 003°57'0 0.0
2018-Aug-15 14:00N 52°26' E 003°57'0 0.2
2018-Aug-15 13:24N 52°26' E 003°57'0 0.2
2018-Aug-15 13:00N 52°26' E 003°56'0 0.1
2018-Aug-15 12:30N 52°26' E 003°56'0 0.0
2018-Aug-15 12:00N 52°26' E 003°56'0 0.0
2018-Aug-15 11:30N 52°26' E 003°56'0 0.1
2018-Aug-15 11:00N 52°26' E 003°56'0 0.2
2018-Aug-15 10:30N 52°26' E 003°57'0 0.1
2018-Aug-15 09:51N 52°26' E 003°57'0 0.1
2018-Aug-15 09:30N 52°26' E 003°57'0 0.0
2018-Aug-15 09:00N 52°26' E 003°57'1 1.3
2018-Aug-15 08:30N 52°26' E 003°56'2 3.7
2018-Aug-15 08:00N 52°27' E 003°53'4 8.6
2018-Aug-15 07:30N 52°26' E 003°46'5 9.1
2018-Aug-15 07:00N 52°25' E 003°39'4 8.9
2018-Aug-15 06:30N 52°22' E 003°34'713.2
2018-Aug-15 06:00N 52°18' E 003°25'714.2
2018-Aug-15 05:30N 52°13' E 003°16'815.4
2018-Aug-15 04:59N 52°08' E 003°06'915.8
2018-Aug-15 04:25N 52°01' E 002°56'716.0
2018-Aug-15 03:58N 51°56' E 002°49'815.9
2018-Aug-15 03:29N 51°50' E 002°40'815.8
2018-Aug-15 03:00N 51°44' E 002°34'815.6
2018-Aug-15 02:29N 51°38' E 002°25'715.4
2018-Aug-15 02:00N 51°33' E 002°17'714.8
2018-Aug-15 01:31N 51°27' E 002°09'612.9
2018-Aug-15 01:01N 51°21' E 002°07'713.5
2018-Aug-15 00:31N 51°14' E 002°06'713.6
2018-Aug-15 00:00N 51°10' E 001°57'713.3
2018-Aug-14 23:31N 51°07' E 001°47'612.4
2018-Aug-14 23:01N 51°04' E 001°39'611.6
2018-Aug-14 22:30N 50°59' E 001°33'611.7
2018-Aug-14 22:00N 50°55' E 001°27'611.4
2018-Aug-14 21:31N 50°49' E 001°25'611.9
2018-Aug-14 21:00N 50°44' E 001°22'912.1
2018-Aug-14 20:16N 50°37' E 001°13'1112.6
2018-Aug-14 19:26N 50°30' E 001°00'511.6
2018-Aug-14 18:59N 50°27' E 000°53'2312.0
2018-Aug-14 17:05N 50°21' E 000°18'111.6
2018-Aug-14 16:59N 50°21' E 000°16'611.7
2018-Aug-14 16:29N 50°19' E 000°08'611.8
2018-Aug-14 15:59N 50°18' W 000°01'611.8
2018-Aug-14 15:30N 50°16' W 000°10'611.5
2018-Aug-14 15:01N 50°15' W 000°18'611.6
2018-Aug-14 14:30N 50°14' W 000°27'611.7
2018-Aug-14 14:00N 50°15' W 000°37'612.3
2018-Aug-14 13:30N 50°19' W 000°43'612.4
2018-Aug-14 13:00N 50°25' W 000°47'4 8.1
2018-Aug-14 12:30N 50°29' W 000°49'0 0.2
2018-Aug-14 12:00N 50°29' W 000°49'0 0.0
2018-Aug-14 11:30N 50°29' W 000°49'0 0.0
2018-Aug-14 11:00N 50°29' W 000°49'0 0.0
2018-Aug-14 10:27N 50°29' W 000°49'0 0.1
2018-Aug-14 09:57N 50°29' W 000°49'0 0.0
2018-Aug-14 09:30N 50°29' W 000°49'0 0.0
2018-Aug-14 09:00N 50°29' W 000°49'0 0.0
2018-Aug-14 08:30N 50°29' W 000°49'0 0.0
2018-Aug-14 08:00N 50°29' W 000°49'0 0.0
2018-Aug-14 07:24N 50°29' W 000°49'0 0.4
2018-Aug-14 07:00N 50°29' W 000°50'0 0.2
2018-Aug-14 06:24N 50°29' W 000°50'0 0.1
2018-Aug-14 06:00N 50°29' W 000°50'0 0.0
2018-Aug-14 05:30N 50°29' W 000°50'0 0.0
2018-Aug-14 05:00N 50°29' W 000°50'0 0.0
2018-Aug-14 04:30N 50°29' W 000°50'0 0.0
2018-Aug-14 04:00N 50°29' W 000°50'0 0.0
2018-Aug-14 03:30N 50°29' W 000°50'0 0.0
2018-Aug-14 03:00N 50°29' W 000°50'0 0.0
2018-Aug-14 02:30N 50°29' W 000°50'0 0.0
2018-Aug-14 01:48N 50°29' W 000°50'0 0.1
2018-Aug-14 01:30N 50°29' W 000°50'1 2.2
2018-Aug-14 01:00N 50°29' W 000°48'4 7.7
2018-Aug-14 00:31N 50°32' W 000°52'611.4
2018-Aug-14 00:00N 50°36' W 000°58'611.0
2018-Aug-13 23:30N 50°42' W 000°58'4 8.7
2018-Aug-13 23:00N 50°44' W 001°04'612.5
2018-Aug-13 22:30N 50°46' W 001°13'4 8.4
2018-Aug-13 22:00N 50°49' W 001°18'2 4.2
2018-Aug-13 21:30N 50°50' W 001°20'0 0.0
2018-Aug-13 21:00N 50°50' W 001°20'0 0.0
2018-Aug-13 20:30N 50°50' W 001°20'0 0.0
2018-Aug-13 20:01N 50°50' W 001°20'0 0.0
2018-Aug-13 19:31N 50°50' W 001°20'0 0.0
2018-Aug-13 19:00N 50°50' W 001°20'0 0.0
2018-Aug-13 18:31N 50°50' W 001°20'0 0.0
2018-Aug-13 18:00N 50°50' W 001°20'0 0.0
2018-Aug-13 17:31N 50°50' W 001°20'0 0.0
2018-Aug-13 17:00N 50°50' W 001°20'0 0.0
2018-Aug-13 16:30N 50°50' W 001°20'0 0.0
2018-Aug-13 16:01N 50°50' W 001°20'0 0.0
2018-Aug-13 15:31N 50°50' W 001°20'0 0.0
2018-Aug-13 15:00N 50°50' W 001°20'0 0.0
2018-Aug-13 14:30N 50°50' W 001°20'0 0.0
2018-Aug-13 14:00N 50°50' W 001°20'0 0.0
2018-Aug-13 13:30N 50°50' W 001°20'0 0.0
2018-Aug-13 13:00N 50°50' W 001°20'0 0.0
2018-Aug-13 12:29N 50°50' W 001°20'0 0.0
2018-Aug-13 12:00N 50°50' W 001°20'0 0.0
2018-Aug-13 11:30N 50°50' W 001°20'0 0.0
2018-Aug-13 11:00N 50°50' W 001°20'0 0.0
2018-Aug-13 10:30N 50°50' W 001°20'0 0.0
2018-Aug-13 10:00N 50°50' W 001°20'0 0.0
2018-Aug-13 09:31N 50°50' W 001°20'0 0.0
2018-Aug-13 09:00N 50°50' W 001°20'0 0.0
2018-Aug-13 08:30N 50°50' W 001°20'0 0.0
2018-Aug-13 08:01N 50°50' W 001°20'0 0.0
2018-Aug-13 07:30N 50°50' W 001°20'0 0.0
2018-Aug-13 07:00N 50°50' W 001°20'0 0.0
2018-Aug-13 06:31N 50°50' W 001°20'0 0.0
2018-Aug-13 06:00N 50°50' W 001°20'0 0.0
2018-Aug-13 05:30N 50°50' W 001°20'0 0.0
2018-Aug-13 05:00N 50°50' W 001°20'0 0.0
2018-Aug-13 04:31N 50°50' W 001°20'0 0.0
2018-Aug-13 04:00N 50°50' W 001°20'0 0.0
2018-Aug-13 03:30N 50°50' W 001°20'0 0.0
2018-Aug-13 03:01N 50°50' W 001°20'0 0.0
2018-Aug-13 02:31N 50°50' W 001°20'0 0.0
2018-Aug-13 02:01N 50°50' W 001°20'0 0.0
2018-Aug-13 01:30N 50°50' W 001°20'0 0.0
2018-Aug-13 01:00N 50°50' W 001°20'0 0.0
2018-Aug-13 00:31N 50°50' W 001°20'0 0.0
2018-Aug-13 00:00N 50°50' W 001°20'0 0.0
2018-Aug-12 23:30N 50°50' W 001°20'0 0.0
2018-Aug-12 23:00N 50°50' W 001°20'0 0.0
2018-Aug-12 22:30N 50°50' W 001°20'0 0.0
2018-Aug-12 22:00N 50°50' W 001°20'0 0.0
2018-Aug-12 21:30N 50°50' W 001°20'0 0.0
2018-Aug-12 21:00N 50°50' W 001°20'0 0.0
2018-Aug-12 20:31N 50°50' W 001°20'0 0.0
2018-Aug-12 20:00N 50°50' W 001°20'0 0.0
2018-Aug-12 19:29N 50°50' W 001°20'0 0.0
2018-Aug-12 19:00N 50°50' W 001°20'0 0.0
2018-Aug-12 18:30N 50°50' W 001°20'0 0.0
2018-Aug-12 18:00N 50°50' W 001°20'0 0.0
2018-Aug-12 17:30N 50°50' W 001°20'0 0.0
2018-Aug-12 17:00N 50°50' W 001°20'0 0.0
2018-Aug-12 16:31N 50°50' W 001°20'0 0.0
2018-Aug-12 16:00N 50°50' W 001°20'0 0.0
2018-Aug-12 15:30N 50°50' W 001°20'0 0.0
2018-Aug-12 15:00N 50°50' W 001°20'0 0.0
2018-Aug-12 14:31N 50°50' W 001°20'0 0.0
2018-Aug-12 14:01N 50°50' W 001°20'0 0.0
2018-Aug-12 13:31N 50°50' W 001°20'0 0.0
2018-Aug-12 13:00N 50°50' W 001°20'0 0.0
2018-Aug-12 12:31N 50°50' W 001°20'0 0.0
2018-Aug-12 12:01N 50°50' W 001°20'0 0.0
2018-Aug-12 11:30N 50°50' W 001°20'0 0.0
2018-Aug-12 11:01N 50°50' W 001°20'0 0.0
2018-Aug-12 10:31N 50°50' W 001°20'0 0.0
2018-Aug-12 10:01N 50°50' W 001°20'0 0.0
2018-Aug-12 09:31N 50°50' W 001°20'0 0.0
2018-Aug-12 09:00N 50°50' W 001°20'0 0.0
2018-Aug-12 08:30N 50°50' W 001°20'0 0.0
2018-Aug-12 08:00N 50°50' W 001°20'0 0.0
2018-Aug-12 07:30N 50°50' W 001°20'0 0.0
2018-Aug-12 07:00N 50°50' W 001°20'0 0.0
2018-Aug-12 06:30N 50°50' W 001°20'0 0.0
2018-Aug-12 06:01N 50°50' W 001°20'0 0.0
2018-Aug-12 05:31N 50°50' W 001°20'0 0.0
2018-Aug-12 05:01N 50°50' W 001°20'0 0.0
2018-Aug-12 04:30N 50°50' W 001°20'0 0.0
2018-Aug-12 04:00N 50°50' W 001°20'0 0.0
2018-Aug-12 03:30N 50°50' W 001°20'0 0.0
2018-Aug-12 03:00N 50°50' W 001°20'0 0.0
2018-Aug-12 02:31N 50°50' W 001°20'0 0.0
2018-Aug-12 02:00N 50°50' W 001°20'0 0.0
2018-Aug-12 01:31N 50°50' W 001°20'0 0.0
2018-Aug-12 01:00N 50°50' W 001°20'0 0.0
2018-Aug-12 00:30N 50°50' W 001°20'0 0.0
2018-Aug-12 00:01N 50°50' W 001°20'0 0.0
2018-Aug-11 23:30N 50°50' W 001°20'0 0.0
2018-Aug-11 23:00N 50°50' W 001°20'0 0.0
2018-Aug-11 22:30N 50°50' W 001°20'0 0.0
2018-Aug-11 22:00N 50°50' W 001°20'0 0.0
2018-Aug-11 21:30N 50°50' W 001°20'0 0.0
2018-Aug-11 21:00N 50°50' W 001°20'0 0.0
2018-Aug-11 20:30N 50°50' W 001°20'0 0.0
2018-Aug-11 20:01N 50°50' W 001°20'0 0.0
2018-Aug-11 19:30N 50°50' W 001°20'0 0.0
2018-Aug-11 19:00N 50°50' W 001°20'0 0.0
2018-Aug-11 18:29N 50°50' W 001°20'0 0.0
2018-Aug-11 18:01N 50°50' W 001°20'0 0.0
2018-Aug-11 17:30N 50°50' W 001°20'0 0.0
2018-Aug-11 17:00N 50°50' W 001°20'0 0.0
2018-Aug-11 16:31N 50°50' W 001°20'0 0.0
2018-Aug-11 16:00N 50°50' W 001°20'0 0.0
2018-Aug-11 15:30N 50°50' W 001°20'0 0.0
2018-Aug-11 14:59N 50°50' W 001°20'0 0.0
2018-Aug-11 14:30N 50°50' W 001°20'0 0.0
2018-Aug-11 14:00N 50°50' W 001°20'0 0.0
2018-Aug-11 13:30N 50°50' W 001°20'0 0.0
2018-Aug-11 13:00N 50°50' W 001°20'0 0.0
2018-Aug-11 12:30N 50°50' W 001°20'0 0.0
2018-Aug-11 12:01N 50°50' W 001°20'0 0.0
2018-Aug-11 11:31N 50°50' W 001°20'0 0.0
2018-Aug-11 11:01N 50°50' W 001°20'0 0.0
2018-Aug-11 10:30N 50°50' W 001°20'0 0.0
2018-Aug-11 10:00N 50°50' W 001°20'0 0.0
2018-Aug-11 09:30N 50°50' W 001°20'0 0.0
2018-Aug-11 09:00N 50°50' W 001°20'0 0.0
2018-Aug-11 08:31N 50°50' W 001°20'0 0.0
2018-Aug-11 08:00N 50°50' W 001°20'0 0.0
2018-Aug-11 07:31N 50°50' W 001°20'0 0.0
2018-Aug-11 07:00N 50°50' W 001°20'0 0.0
2018-Aug-11 06:31N 50°50' W 001°20'0 0.0
2018-Aug-11 06:01N 50°50' W 001°20'0 0.0
2018-Aug-11 05:31N 50°50' W 001°20'0 0.0
2018-Aug-11 05:00N 50°50' W 001°20'0 0.0
2018-Aug-11 04:30N 50°50' W 001°20'0 0.0
2018-Aug-11 04:00N 50°50' W 001°20'0 0.0
2018-Aug-11 03:28N 50°50' W 001°20'0 0.0
2018-Aug-11 02:59N 50°50' W 001°20'0 0.0
2018-Aug-11 02:30N 50°50' W 001°20'0 0.0
2018-Aug-11 02:01N 50°50' W 001°20'0 0.0
2018-Aug-11 01:30N 50°50' W 001°20'0 0.0
2018-Aug-11 01:00N 50°50' W 001°20'0 0.0
2018-Aug-11 00:30N 50°50' W 001°20'0 0.0
2018-Aug-11 00:00N 50°50' W 001°20'0 0.0
2018-Aug-10 23:30N 50°50' W 001°20'0 0.0
2018-Aug-10 23:00N 50°50' W 001°20'0 0.0
2018-Aug-10 22:30N 50°50' W 001°20'0 0.0
2018-Aug-10 22:00N 50°50' W 001°20'0 0.0
2018-Aug-10 21:30N 50°50' W 001°20'0 0.0
2018-Aug-10 20:57N 50°50' W 001°20'0 0.0
2018-Aug-10 20:26N 50°50' W 001°20'0 0.0
2018-Aug-10 20:00N 50°50' W 001°20'0 0.0
2018-Aug-10 19:31N 50°50' W 001°20'0 0.0
2018-Aug-10 19:00N 50°50' W 001°20'0 0.0
2018-Aug-10 18:28N 50°50' W 001°20'0 0.0
2018-Aug-10 18:00N 50°50' W 001°20'0 0.0
2018-Aug-10 17:30N 50°50' W 001°20'0 0.0
2018-Aug-10 17:00N 50°50' W 001°20'0 0.0
2018-Aug-10 16:30N 50°50' W 001°20'0 0.0
2018-Aug-10 16:00N 50°50' W 001°20'0 0.0
2018-Aug-10 15:31N 50°50' W 001°20'0 0.0
2018-Aug-10 14:59N 50°50' W 001°20'0 0.0
2018-Aug-10 14:30N 50°50' W 001°20'0 0.0
2018-Aug-10 14:00N 50°50' W 001°20'0 0.0
2018-Aug-10 13:30N 50°50' W 001°20'0 0.0
2018-Aug-10 13:00N 50°50' W 001°20'0 0.0
2018-Aug-10 12:30N 50°50' W 001°20'0 0.0
2018-Aug-10 12:01N 50°50' W 001°20'0 0.0
2018-Aug-10 11:31N 50°50' W 001°20'0 0.0
2018-Aug-10 11:00N 50°50' W 001°20'0 0.0
2018-Aug-10 10:30N 50°50' W 001°20'0 0.0
2018-Aug-10 09:59N 50°50' W 001°20'0 0.0
2018-Aug-10 09:30N 50°50' W 001°20'0 0.0
2018-Aug-10 09:00N 50°50' W 001°20'0 0.0
2018-Aug-10 08:30N 50°50' W 001°20'0 0.0
2018-Aug-10 08:00N 50°50' W 001°20'0 0.0
2018-Aug-10 07:30N 50°50' W 001°20'0 0.0
2018-Aug-10 07:01N 50°50' W 001°20'0 0.0
2018-Aug-10 06:30N 50°50' W 001°20'0 0.0
2018-Aug-10 06:00N 50°50' W 001°20'0 0.0
2018-Aug-10 05:30N 50°50' W 001°20'0 0.0
2018-Aug-10 04:59N 50°50' W 001°20'0 0.0
2018-Aug-10 04:30N 50°50' W 001°20'0 0.0
2018-Aug-10 04:00N 50°50' W 001°20'0 0.0
2018-Aug-10 03:31N 50°50' W 001°20'0 0.0
2018-Aug-10 03:00N 50°50' W 001°20'0 0.0
2018-Aug-10 02:30N 50°50' W 001°20'0 0.0
2018-Aug-10 02:00N 50°50' W 001°20'0 0.0
2018-Aug-10 01:30N 50°50' W 001°20'0 0.0
2018-Aug-10 01:00N 50°50' W 001°20'0 0.0
2018-Aug-10 00:30N 50°50' W 001°20'0 0.0
2018-Aug-10 00:01N 50°50' W 001°20'0 0.0
2018-Aug-09 23:31N 50°50' W 001°20'0 0.0
2018-Aug-09 23:01N 50°50' W 001°20'0 0.0
2018-Aug-09 22:30N 50°50' W 001°20'0 0.0
2018-Aug-09 22:00N 50°50' W 001°20'0 0.0
2018-Aug-09 21:31N 50°50' W 001°20'0 0.0
2018-Aug-09 21:00N 50°50' W 001°20'0 0.0
2018-Aug-09 20:31N 50°50' W 001°20'0 0.0
2018-Aug-09 20:00N 50°50' W 001°20'0 0.0
2018-Aug-09 19:30N 50°50' W 001°20'0 0.0
2018-Aug-09 19:00N 50°50' W 001°20'0 0.0
2018-Aug-09 18:30N 50°50' W 001°20'0 0.0
2018-Aug-09 18:00N 50°50' W 001°20'0 0.0
2018-Aug-09 17:30N 50°50' W 001°20'0 0.0
2018-Aug-09 17:00N 50°50' W 001°20'0 0.0
2018-Aug-09 16:29N 50°50' W 001°20'0 0.0
2018-Aug-09 16:00N 50°50' W 001°20'0 0.0
2018-Aug-09 15:30N 50°50' W 001°20'0 0.0
2018-Aug-09 15:01N 50°50' W 001°20'0 0.0
2018-Aug-09 14:30N 50°50' W 001°20'0 0.0
2018-Aug-09 13:59N 50°50' W 001°20'0 0.0
2018-Aug-09 13:30N 50°50' W 001°20'0 0.0
2018-Aug-09 13:00N 50°50' W 001°20'0 0.0
2018-Aug-09 12:29N 50°50' W 001°20'0 0.0
2018-Aug-09 12:00N 50°50' W 001°20'0 0.0
2018-Aug-09 11:28N 50°50' W 001°20'0 0.0
2018-Aug-09 11:00N 50°50' W 001°20'0 0.0
2018-Aug-09 10:28N 50°50' W 001°20'0 0.0
2018-Aug-09 09:59N 50°50' W 001°20'0 0.0
2018-Aug-09 09:31N 50°50' W 001°20'0 0.0
2018-Aug-09 09:00N 50°50' W 001°20'0 0.0
2018-Aug-09 08:30N 50°50' W 001°20'0 0.0
2018-Aug-09 08:01N 50°50' W 001°20'0 0.0
2018-Aug-09 07:30N 50°50' W 001°20'0 0.0
2018-Aug-09 07:00N 50°50' W 001°20'0 0.0
2018-Aug-09 06:30N 50°50' W 001°20'0 0.0
2018-Aug-09 06:00N 50°50' W 001°20'0 0.0
2018-Aug-09 05:30N 50°50' W 001°20'0 0.0
2018-Aug-09 05:01N 50°50' W 001°20'0 0.0
2018-Aug-09 04:31N 50°50' W 001°20'0 0.4
2018-Aug-09 04:01N 50°51' W 001°20'1 2.7
2018-Aug-09 03:30N 50°49' W 001°18'3 5.9
2018-Aug-09 03:01N 50°47' W 001°18'510.4
2018-Aug-09 02:31N 50°46' W 001°09'510.9
2018-Aug-09 02:00N 50°43' W 001°02'5 9.2
2018-Aug-09 01:31N 50°40' W 000°57'4 8.2
2018-Aug-09 01:01N 50°37' W 001°00'2 3.8
2018-Aug-09 00:31N 50°37' W 001°03'0 0.1
2018-Aug-09 00:00N 50°37' W 001°03'0 0.0
2018-Aug-08 23:30N 50°37' W 001°03'0 0.0
2018-Aug-08 23:00N 50°37' W 001°03'0 0.0
2018-Aug-08 22:30N 50°37' W 001°03'0 0.0
2018-Aug-08 22:00N 50°37' W 001°03'0 0.0
2018-Aug-08 21:30N 50°37' W 001°03'0 0.0
2018-Aug-08 21:00N 50°37' W 001°03'0 0.3
2018-Aug-08 20:30N 50°37' W 001°03'0 0.2
2018-Aug-08 20:00N 50°37' W 001°03'0 0.0
2018-Aug-08 19:30N 50°37' W 001°03'0 0.0
2018-Aug-08 19:00N 50°37' W 001°03'0 0.0
2018-Aug-08 18:30N 50°37' W 001°03'0 0.0
2018-Aug-08 18:00N 50°37' W 001°03'0 0.0
2018-Aug-08 17:30N 50°37' W 001°03'0 0.0
2018-Aug-08 17:00N 50°37' W 001°03'0 0.0
2018-Aug-08 16:30N 50°37' W 001°03'0 0.0
2018-Aug-08 16:00N 50°37' W 001°03'0 0.0
2018-Aug-08 15:30N 50°37' W 001°03'0 0.0
2018-Aug-08 15:00N 50°37' W 001°03'0 0.0
2018-Aug-08 14:30N 50°37' W 001°03'0 0.1
2018-Aug-08 14:00N 50°37' W 001°03'  
Track history (hours):
 
Tides and Currents Weather Stations Pressure Air Temp Water Temp Dewpoint Dewpoint Depression Visibility Wind Speed Wind Dir Waves Ship Positions

High Glow

Last reported at 2018-Aug-18 13:59 UTC. Time now 2018-Aug-18 14:14 UTC.
Position N 52°24' E 004°49'.

Length 180 m; draft 7.7 m.

Type: Ship. MMSI: 371179000.

Date/timePositionNaut miles runAvg speedWind from/ knotsBaromVisibWave heightAir tempDewpointWater temp
2018-Aug-18 13:59N 52°24' E 004°49'0 0.0
2018-Aug-18 13:08N 52°24' E 004°49'0 0.0
2018-Aug-18 12:58N 52°24' E 004°49'0 0.0
2018-Aug-18 12:28N 52°24' E 004°49'0 0.0
2018-Aug-18 11:59N 52°24' E 004°49'0 0.0
2018-Aug-18 11:25N 52°24' E 004°49'0 0.0
2018-Aug-18 10:59N 52°24' E 004°49'0 0.0
2018-Aug-18 10:28N 52°24' E 004°49'0 0.0
2018-Aug-18 09:55N 52°24' E 004°49'0 0.0
2018-Aug-18 09:28N 52°24' E 004°49'0 0.0
2018-Aug-18 08:58N 52°24' E 004°49'0 0.0
2018-Aug-18 08:29N 52°24' E 004°49'0 0.0
2018-Aug-18 07:55N 52°24' E 004°49'0 0.0
2018-Aug-18 07:29N 52°24' E 004°49'0 0.0
2018-Aug-18 06:56N 52°24' E 004°49'0 0.0
2018-Aug-18 06:19N 52°24' E 004°49'0 0.0
2018-Aug-18 05:56N 52°24' E 004°49'0 0.0
2018-Aug-18 05:29N 52°24' E 004°49'0 0.0
2018-Aug-18 04:58N 52°24' E 004°49'0 0.0
2018-Aug-18 04:29N 52°24' E 004°49'0 0.0
2018-Aug-18 03:59N 52°24' E 004°49'0 0.0
2018-Aug-18 03:29N 52°24' E 004°49'0 0.0
2018-Aug-18 02:58N 52°24' E 004°49'0 0.0
2018-Aug-18 02:28N 52°24' E 004°49'0 0.0
2018-Aug-18 01:58N 52°24' E 004°49'0 0.0
2018-Aug-18 01:29N 52°24' E 004°49'0 0.0
2018-Aug-18 00:58N 52°24' E 004°49'0 0.0
2018-Aug-18 00:29N 52°24' E 004°49'0 0.0
2018-Aug-17 23:58N 52°24' E 004°49'0 0.0
2018-Aug-17 23:29N 52°24' E 004°49'0 0.0
2018-Aug-17 22:59N 52°24' E 004°49'0 0.0
2018-Aug-17 22:30N 52°24' E 004°49'0 0.6
2018-Aug-17 22:00N 52°25' E 004°49'2 4.9
2018-Aug-17 21:30N 52°26' E 004°46'3 6.9
2018-Aug-17 21:00N 52°27' E 004°41'3 5.1
2018-Aug-17 20:30N 52°28' E 004°36'0 0.7
2018-Aug-17 20:00N 52°28' E 004°36'2 3.5
2018-Aug-17 19:30N 52°28' E 004°33'5 9.8
2018-Aug-17 19:00N 52°28' E 004°25'4 8.0
2018-Aug-17 18:30N 52°29' E 004°18'4 7.6
2018-Aug-17 18:00N 52°29' E 004°12'4 8.9
2018-Aug-17 17:30N 52°29' E 004°05'4 8.0
2018-Aug-17 17:00N 52°27' E 003°59'2 4.6
2018-Aug-17 16:30N 52°26' E 003°56'0 0.1
2018-Aug-17 16:00N 52°26' E 003°57'0 0.0
2018-Aug-17 15:30N 52°26' E 003°56'0 0.0
2018-Aug-17 15:00N 52°26' E 003°56'0 0.0
2018-Aug-17 14:30N 52°26' E 003°56'0 0.0
2018-Aug-17 13:30N 52°26' E 003°56'0 0.0
2018-Aug-17 13:00N 52°26' E 003°56'0 0.1
2018-Aug-17 12:30N 52°26' E 003°56'0 0.0
2018-Aug-17 11:57N 52°26' E 003°56'0 0.0
2018-Aug-17 11:30N 52°26' E 003°56'0 0.1
2018-Aug-17 11:00N 52°26' E 003°57'0 0.1
2018-Aug-17 10:27N 52°26' E 003°57'0 0.1
2018-Aug-17 09:57N 52°26' E 003°57'0 0.1
2018-Aug-17 09:30N 52°26' E 003°57'0 0.1
2018-Aug-17 09:00N 52°26' E 003°57'0 0.0
2018-Aug-17 08:30N 52°26' E 003°57'0 0.0
2018-Aug-17 08:00N 52°26' E 003°57'0 0.0
2018-Aug-17 07:30N 52°26' E 003°57'0 0.0
2018-Aug-17 07:00N 52°26' E 003°57'0 0.0
2018-Aug-17 06:30N 52°26' E 003°57'0 0.0
2018-Aug-17 05:54N 52°26' E 003°57'0 0.0
2018-Aug-17 05:30N 52°26' E 003°57'0 0.1
2018-Aug-17 05:00N 52°26' E 003°57'0 0.1
2018-Aug-17 04:30N 52°26' E 003°57'0 0.2
2018-Aug-17 04:00N 52°26' E 003°57'0 0.1
2018-Aug-17 03:30N 52°26' E 003°57'0 0.1
2018-Aug-17 03:00N 52°26' E 003°57'0 0.0
2018-Aug-17 02:30N 52°26' E 003°56'0 0.0
2018-Aug-17 02:00N 52°26' E 003°56'0 0.0
2018-Aug-17 01:30N 52°26' E 003°56'0 0.0
2018-Aug-17 01:00N 52°26' E 003°57'0 0.0
2018-Aug-17 00:30N 52°26' E 003°57'0 0.0
2018-Aug-17 00:00N 52°26' E 003°57'0 0.0
2018-Aug-16 23:30N 52°26' E 003°57'0 0.1
2018-Aug-16 23:00N 52°26' E 003°57'0 0.1
2018-Aug-16 22:30N 52°26' E 003°57'0 0.1
2018-Aug-16 22:00N 52°26' E 003°57'0 0.1
2018-Aug-16 21:30N 52°26' E 003°57'0 0.0
2018-Aug-16 21:00N 52°26' E 003°57'0 0.1
2018-Aug-16 20:30N 52°26' E 003°57'0 0.1
2018-Aug-16 20:00N 52°26' E 003°57'0 0.0
2018-Aug-16 19:30N 52°26' E 003°57'0 0.0
2018-Aug-16 18:57N 52°26' E 003°57'0 0.0
2018-Aug-16 18:30N 52°26' E 003°57'0 0.0
2018-Aug-16 18:00N 52°26' E 003°57'0 0.0
2018-Aug-16 17:30N 52°26' E 003°57'0 0.0
2018-Aug-16 17:00N 52°26' E 003°57'0 0.2
2018-Aug-16 16:30N 52°26' E 003°57'0 0.1
2018-Aug-16 16:00N 52°26' E 003°57'0 0.1
2018-Aug-16 15:30N 52°26' E 003°57'0 0.0
2018-Aug-16 14:54N 52°26' E 003°57'0 0.1
2018-Aug-16 14:30N 52°26' E 003°57'0 0.1
2018-Aug-16 14:00N 52°26' E 003°57'0 0.1
2018-Aug-16 13:30N 52°26' E 003°57'0 0.1
2018-Aug-16 13:00N 52°26' E 003°57'0 0.0
2018-Aug-16 12:27N 52°26' E 003°57'0 0.0
2018-Aug-16 11:42N 52°26' E 003°57'0 0.0
2018-Aug-16 11:30N 52°26' E 003°57'0 0.0
2018-Aug-16 11:00N 52°26' E 003°57'0 0.0
2018-Aug-16 10:30N 52°26' E 003°57'0 0.0
2018-Aug-16 10:00N 52°26' E 003°57'0 0.0
2018-Aug-16 09:30N 52°26' E 003°57'0 0.0
2018-Aug-16 09:00N 52°26' E 003°57'0 0.1
2018-Aug-16 08:30N 52°26' E 003°57'0 0.0
2018-Aug-16 08:00N 52°26' E 003°57'0 0.0
2018-Aug-16 07:30N 52°26' E 003°57'0 0.0
2018-Aug-16 07:00N 52°26' E 003°57'0 0.0
2018-Aug-16 06:30N 52°26' E 003°57'0 0.0
2018-Aug-16 06:00N 52°26' E 003°57'0 0.0
2018-Aug-16 05:30N 52°26' E 003°57'0 0.0
2018-Aug-16 05:00N 52°26' E 003°57'0 0.0
2018-Aug-16 04:27N 52°26' E 003°57'0 0.0
2018-Aug-16 04:00N 52°26' E 003°57'0 0.1
2018-Aug-16 03:30N 52°26' E 003°57'0 0.1
2018-Aug-16 03:00N 52°26' E 003°57'0 0.0
2018-Aug-16 02:27N 52°26' E 003°57'0 0.0
2018-Aug-16 02:00N 52°26' E 003°57'0 0.1
2018-Aug-16 01:30N 52°26' E 003°57'0 0.1
2018-Aug-16 01:00N 52°26' E 003°57'0 0.0
2018-Aug-16 00:30N 52°26' E 003°57'0 0.0
2018-Aug-16 00:00N 52°26' E 003°57'0 0.0
2018-Aug-15 23:30N 52°26' E 003°57'0 0.0
2018-Aug-15 23:00N 52°26' E 003°57'0 0.0
2018-Aug-15 22:30N 52°26' E 003°57'0 0.0
2018-Aug-15 22:00N 52°26' E 003°57'0 0.1
2018-Aug-15 21:30N 52°26' E 003°57'0 0.1
2018-Aug-15 21:00N 52°26' E 003°57'0 0.1
2018-Aug-15 20:30N 52°26' E 003°57'0 0.1
2018-Aug-15 20:00N 52°26' E 003°57'0 0.0
2018-Aug-15 19:30N 52°26' E 003°57'0 0.0
2018-Aug-15 19:00N 52°26' E 003°57'0 0.1
2018-Aug-15 18:30N 52°26' E 003°57'0 0.1
2018-Aug-15 18:00N 52°26' E 003°57'0 0.1
2018-Aug-15 17:30N 52°26' E 003°57'0 0.0
2018-Aug-15 16:27N 52°26' E 003°57'0 0.0
2018-Aug-15 16:00N 52°26' E 003°57'0 0.0
2018-Aug-15 15:30N 52°26' E 003°57'0 0.1
2018-Aug-15 15:00N 52°26' E 003°57'0 0.0
2018-Aug-15 14:30N 52°26' E 003°57'0 0.0
2018-Aug-15 14:00N 52°26' E 003°57'0 0.2
2018-Aug-15 13:24N 52°26' E 003°57'0 0.2
2018-Aug-15 13:00N 52°26' E 003°56'0 0.1
2018-Aug-15 12:30N 52°26' E 003°56'0 0.0
2018-Aug-15 12:00N 52°26' E 003°56'0 0.0
2018-Aug-15 11:30N 52°26' E 003°56'0 0.1
2018-Aug-15 11:00N 52°26' E 003°56'0 0.2
2018-Aug-15 10:30N 52°26' E 003°57'0 0.1
2018-Aug-15 09:51N 52°26' E 003°57'0 0.1
2018-Aug-15 09:30N 52°26' E 003°57'0 0.0
2018-Aug-15 09:00N 52°26' E 003°57'1 1.3
2018-Aug-15 08:30N 52°26' E 003°56'2 3.7
2018-Aug-15 08:00N 52°27' E 003°53'4 8.6
2018-Aug-15 07:30N 52°26' E 003°46'5 9.1
2018-Aug-15 07:00N 52°25' E 003°39'4 8.9
2018-Aug-15 06:30N 52°22' E 003°34'713.2
2018-Aug-15 06:00N 52°18' E 003°25'714.2
2018-Aug-15 05:30N 52°13' E 003°16'815.4
2018-Aug-15 04:59N 52°08' E 003°06'915.8
2018-Aug-15 04:25N 52°01' E 002°56'716.0
2018-Aug-15 03:58N 51°56' E 002°49'815.9
2018-Aug-15 03:29N 51°50' E 002°40'815.8
2018-Aug-15 03:00N 51°44' E 002°34'815.6
2018-Aug-15 02:29N 51°38' E 002°25'715.4
2018-Aug-15 02:00N 51°33' E 002°17'714.8
2018-Aug-15 01:31N 51°27' E 002°09'612.9
2018-Aug-15 01:01N 51°21' E 002°07'713.5
2018-Aug-15 00:31N 51°14' E 002°06'713.6
2018-Aug-15 00:00N 51°10' E 001°57'713.3
2018-Aug-14 23:31N 51°07' E 001°47'612.4
2018-Aug-14 23:01N 51°04' E 001°39'611.6
2018-Aug-14 22:30N 50°59' E 001°33'611.7
2018-Aug-14 22:00N 50°55' E 001°27'611.4
2018-Aug-14 21:31N 50°49' E 001°25'611.9
2018-Aug-14 21:00N 50°44' E 001°22'912.1
2018-Aug-14 20:16N 50°37' E 001°13'1112.6
2018-Aug-14 19:26N 50°30' E 001°00'511.6
2018-Aug-14 18:59N 50°27' E 000°53'2312.0
2018-Aug-14 17:05N 50°21' E 000°18'111.6
2018-Aug-14 16:59N 50°21' E 000°16'611.7
2018-Aug-14 16:29N 50°19' E 000°08'611.8
2018-Aug-14 15:59N 50°18' W 000°01'611.8
2018-Aug-14 15:30N 50°16' W 000°10'611.5
2018-Aug-14 15:01N 50°15' W 000°18'611.6
2018-Aug-14 14:30N 50°14' W 000°27'611.7
2018-Aug-14 14:00N 50°15' W 000°37'612.3
2018-Aug-14 13:30N 50°19' W 000°43'612.4
2018-Aug-14 13:00N 50°25' W 000°47'4 8.1
2018-Aug-14 12:30N 50°29' W 000°49'0 0.2
2018-Aug-14 12:00N 50°29' W 000°49'0 0.0
2018-Aug-14 11:30N 50°29' W 000°49'0 0.0
2018-Aug-14 11:00N 50°29' W 000°49'0 0.0
2018-Aug-14 10:27N 50°29' W 000°49'0 0.1
2018-Aug-14 09:57N 50°29' W 000°49'0 0.0
2018-Aug-14 09:30N 50°29' W 000°49'0 0.0
2018-Aug-14 09:00N 50°29' W 000°49'0 0.0
2018-Aug-14 08:30N 50°29' W 000°49'0 0.0
2018-Aug-14 08:00N 50°29' W 000°49'0 0.0
2018-Aug-14 07:24N 50°29' W 000°49'0 0.4
2018-Aug-14 07:00N 50°29' W 000°50'0 0.2
2018-Aug-14 06:24N 50°29' W 000°50'0 0.1
2018-Aug-14 06:00N 50°29' W 000°50'0 0.0
2018-Aug-14 05:30N 50°29' W 000°50'0 0.0
2018-Aug-14 05:00N 50°29' W 000°50'0 0.0
2018-Aug-14 04:30N 50°29' W 000°50'0 0.0
2018-Aug-14 04:00N 50°29' W 000°50'0 0.0
2018-Aug-14 03:30N 50°29' W 000°50'0 0.0
2018-Aug-14 03:00N 50°29' W 000°50'0 0.0
2018-Aug-14 02:30N 50°29' W 000°50'0 0.0
2018-Aug-14 01:48N 50°29' W 000°50'0 0.1
2018-Aug-14 01:30N 50°29' W 000°50'1 2.2
2018-Aug-14 01:00N 50°29' W 000°48'4 7.7
2018-Aug-14 00:31N 50°32' W 000°52'611.4
2018-Aug-14 00:00N 50°36' W 000°58'611.0
2018-Aug-13 23:30N 50°42' W 000°58'4 8.7
2018-Aug-13 23:00N 50°44' W 001°04'612.5
2018-Aug-13 22:30N 50°46' W 001°13'4 8.4
2018-Aug-13 22:00N 50°49' W 001°18'2 4.2
2018-Aug-13 21:30N 50°50' W 001°20'0 0.0
2018-Aug-13 21:00N 50°50' W 001°20'0 0.0
2018-Aug-13 20:30N 50°50' W 001°20'0 0.0
2018-Aug-13 20:01N 50°50' W 001°20'0 0.0
2018-Aug-13 19:31N 50°50' W 001°20'0 0.0
2018-Aug-13 19:00N 50°50' W 001°20'0 0.0
2018-Aug-13 18:31N 50°50' W 001°20'0 0.0
2018-Aug-13 18:00N 50°50' W 001°20'0 0.0
2018-Aug-13 17:31N 50°50' W 001°20'0 0.0
2018-Aug-13 17:00N 50°50' W 001°20'0 0.0
2018-Aug-13 16:30N 50°50' W 001°20'0 0.0
2018-Aug-13 16:01N 50°50' W 001°20'0 0.0
2018-Aug-13 15:31N 50°50' W 001°20'0 0.0
2018-Aug-13 15:00N 50°50' W 001°20'0 0.0
2018-Aug-13 14:30N 50°50' W 001°20'0 0.0
2018-Aug-13 14:00N 50°50' W 001°20'0 0.0
2018-Aug-13 13:30N 50°50' W 001°20'0 0.0
2018-Aug-13 13:00N 50°50' W 001°20'0 0.0
2018-Aug-13 12:29N 50°50' W 001°20'0 0.0
2018-Aug-13 12:00N 50°50' W 001°20'0 0.0
2018-Aug-13 11:30N 50°50' W 001°20'0 0.0
2018-Aug-13 11:00N 50°50' W 001°20'0 0.0
2018-Aug-13 10:30N 50°50' W 001°20'0 0.0
2018-Aug-13 10:00N 50°50' W 001°20'0 0.0
2018-Aug-13 09:31N 50°50' W 001°20'0 0.0
2018-Aug-13 09:00N 50°50' W 001°20'0 0.0
2018-Aug-13 08:30N 50°50' W 001°20'0 0.0
2018-Aug-13 08:01N 50°50' W 001°20'0 0.0
2018-Aug-13 07:30N 50°50' W 001°20'0 0.0
2018-Aug-13 07:00N 50°50' W 001°20'0 0.0
2018-Aug-13 06:31N 50°50' W 001°20'0 0.0
2018-Aug-13 06:00N 50°50' W 001°20'0 0.0
2018-Aug-13 05:30N 50°50' W 001°20'0 0.0
2018-Aug-13 05:00N 50°50' W 001°20'0 0.0
2018-Aug-13 04:31N 50°50' W 001°20'0 0.0
2018-Aug-13 04:00N 50°50' W 001°20'0 0.0
2018-Aug-13 03:30N 50°50' W 001°20'0 0.0
2018-Aug-13 03:01N 50°50' W 001°20'0 0.0
2018-Aug-13 02:31N 50°50' W 001°20'0 0.0
2018-Aug-13 02:01N 50°50' W 001°20'0 0.0
2018-Aug-13 01:30N 50°50' W 001°20'0 0.0
2018-Aug-13 01:00N 50°50' W 001°20'0 0.0
2018-Aug-13 00:31N 50°50' W 001°20'0 0.0
2018-Aug-13 00:00N 50°50' W 001°20'0 0.0
2018-Aug-12 23:30N 50°50' W 001°20'0 0.0
2018-Aug-12 23:00N 50°50' W 001°20'0 0.0
2018-Aug-12 22:30N 50°50' W 001°20'0 0.0
2018-Aug-12 22:00N 50°50' W 001°20'0 0.0
2018-Aug-12 21:30N 50°50' W 001°20'0 0.0
2018-Aug-12 21:00N 50°50' W 001°20'0 0.0
2018-Aug-12 20:31N 50°50' W 001°20'0 0.0
2018-Aug-12 20:00N 50°50' W 001°20'0 0.0
2018-Aug-12 19:29N 50°50' W 001°20'0 0.0
2018-Aug-12 19:00N 50°50' W 001°20'0 0.0
2018-Aug-12 18:30N 50°50' W 001°20'0 0.0
2018-Aug-12 18:00N 50°50' W 001°20'0 0.0
2018-Aug-12 17:30N 50°50' W 001°20'0 0.0
2018-Aug-12 17:00N 50°50' W 001°20'0 0.0
2018-Aug-12 16:31N 50°50' W 001°20'0 0.0
2018-Aug-12 16:00N 50°50' W 001°20'0 0.0
2018-Aug-12 15:30N 50°50' W 001°20'0 0.0
2018-Aug-12 15:00N 50°50' W 001°20'0 0.0
2018-Aug-12 14:31N 50°50' W 001°20'0 0.0
2018-Aug-12 14:01N 50°50' W 001°20'0 0.0
2018-Aug-12 13:31N 50°50' W 001°20'0 0.0
2018-Aug-12 13:00N 50°50' W 001°20'0 0.0
2018-Aug-12 12:31N 50°50' W 001°20'0 0.0
2018-Aug-12 12:01N 50°50' W 001°20'0 0.0
2018-Aug-12 11:30N 50°50' W 001°20'0 0.0
2018-Aug-12 11:01N 50°50' W 001°20'0 0.0
2018-Aug-12 10:31N 50°50' W 001°20'0 0.0
2018-Aug-12 10:01N 50°50' W 001°20'0 0.0
2018-Aug-12 09:31N 50°50' W 001°20'0 0.0
2018-Aug-12 09:00N 50°50' W 001°20'0 0.0
2018-Aug-12 08:30N 50°50' W 001°20'0 0.0
2018-Aug-12 08:00N 50°50' W 001°20'0 0.0
2018-Aug-12 07:30N 50°50' W 001°20'0 0.0
2018-Aug-12 07:00N 50°50' W 001°20'0 0.0
2018-Aug-12 06:30N 50°50' W 001°20'0 0.0
2018-Aug-12 06:01N 50°50' W 001°20'0 0.0
2018-Aug-12 05:31N 50°50' W 001°20'0 0.0
2018-Aug-12 05:01N 50°50' W 001°20'0 0.0
2018-Aug-12 04:30N 50°50' W 001°20'0 0.0
2018-Aug-12 04:00N 50°50' W 001°20'0 0.0
2018-Aug-12 03:30N 50°50' W 001°20'0 0.0
2018-Aug-12 03:00N 50°50' W 001°20'0 0.0
2018-Aug-12 02:31N 50°50' W 001°20'0 0.0
2018-Aug-12 02:00N 50°50' W 001°20'0 0.0
2018-Aug-12 01:31N 50°50' W 001°20'0 0.0
2018-Aug-12 01:00N 50°50' W 001°20'0 0.0
2018-Aug-12 00:30N 50°50' W 001°20'0 0.0
2018-Aug-12 00:01N 50°50' W 001°20'0 0.0
2018-Aug-11 23:30N 50°50' W 001°20'0 0.0
2018-Aug-11 23:00N 50°50' W 001°20'0 0.0
2018-Aug-11 22:30N 50°50' W 001°20'0 0.0
2018-Aug-11 22:00N 50°50' W 001°20'0 0.0
2018-Aug-11 21:30N 50°50' W 001°20'0 0.0
2018-Aug-11 21:00N 50°50' W 001°20'0 0.0
2018-Aug-11 20:30N 50°50' W 001°20'0 0.0
2018-Aug-11 20:01N 50°50' W 001°20'0 0.0
2018-Aug-11 19:30N 50°50' W 001°20'0 0.0
2018-Aug-11 19:00N 50°50' W 001°20'0 0.0
2018-Aug-11 18:29N 50°50' W 001°20'0 0.0
2018-Aug-11 18:01N 50°50' W 001°20'0 0.0
2018-Aug-11 17:30N 50°50' W 001°20'0 0.0
2018-Aug-11 17:00N 50°50' W 001°20'0 0.0
2018-Aug-11 16:31N 50°50' W 001°20'0 0.0
2018-Aug-11 16:00N 50°50' W 001°20'0 0.0
2018-Aug-11 15:30N 50°50' W 001°20'0 0.0
2018-Aug-11 14:59N 50°50' W 001°20'0 0.0
2018-Aug-11 14:30N 50°50' W 001°20'0 0.0
2018-Aug-11 14:00N 50°50' W 001°20'0 0.0
2018-Aug-11 13:30N 50°50' W 001°20'0 0.0
2018-Aug-11 13:00N 50°50' W 001°20'0 0.0
2018-Aug-11 12:30N 50°50' W 001°20'0 0.0
2018-Aug-11 12:01N 50°50' W 001°20'0 0.0
2018-Aug-11 11:31N 50°50' W 001°20'0 0.0
2018-Aug-11 11:01N 50°50' W 001°20'0 0.0
2018-Aug-11 10:30N 50°50' W 001°20'0 0.0
2018-Aug-11 10:00N 50°50' W 001°20'0 0.0
2018-Aug-11 09:30N 50°50' W 001°20'0 0.0
2018-Aug-11 09:00N 50°50' W 001°20'0 0.0
2018-Aug-11 08:31N 50°50' W 001°20'0 0.0
2018-Aug-11 08:00N 50°50' W 001°20'0 0.0
2018-Aug-11 07:31N 50°50' W 001°20'0 0.0
2018-Aug-11 07:00N 50°50' W 001°20'0 0.0
2018-Aug-11 06:31N 50°50' W 001°20'0 0.0
2018-Aug-11 06:01N 50°50' W 001°20'0 0.0
2018-Aug-11 05:31N 50°50' W 001°20'0 0.0
2018-Aug-11 05:00N 50°50' W 001°20'0 0.0
2018-Aug-11 04:30N 50°50' W 001°20'0 0.0
2018-Aug-11 04:00N 50°50' W 001°20'0 0.0
2018-Aug-11 03:28N 50°50' W 001°20'0 0.0
2018-Aug-11 02:59N 50°50' W 001°20'0 0.0
2018-Aug-11 02:30N 50°50' W 001°20'0 0.0
2018-Aug-11 02:01N 50°50' W 001°20'0 0.0
2018-Aug-11 01:30N 50°50' W 001°20'0 0.0
2018-Aug-11 01:00N 50°50' W 001°20'0 0.0
2018-Aug-11 00:30N 50°50' W 001°20'0 0.0
2018-Aug-11 00:00N 50°50' W 001°20'0 0.0
2018-Aug-10 23:30N 50°50' W 001°20'0 0.0
2018-Aug-10 23:00N 50°50' W 001°20'0 0.0
2018-Aug-10 22:30N 50°50' W 001°20'0 0.0
2018-Aug-10 22:00N 50°50' W 001°20'0 0.0
2018-Aug-10 21:30N 50°50' W 001°20'0 0.0
2018-Aug-10 20:57N 50°50' W 001°20'0 0.0
2018-Aug-10 20:26N 50°50' W 001°20'0 0.0
2018-Aug-10 20:00N 50°50' W 001°20'0 0.0
2018-Aug-10 19:31N 50°50' W 001°20'0 0.0
2018-Aug-10 19:00N 50°50' W 001°20'0 0.0
2018-Aug-10 18:28N 50°50' W 001°20'0 0.0
2018-Aug-10 18:00N 50°50' W 001°20'0 0.0
2018-Aug-10 17:30N 50°50' W 001°20'0 0.0
2018-Aug-10 17:00N 50°50' W 001°20'0 0.0
2018-Aug-10 16:30N 50°50' W 001°20'0 0.0
2018-Aug-10 16:00N 50°50' W 001°20'0 0.0
2018-Aug-10 15:31N 50°50' W 001°20'0 0.0
2018-Aug-10 14:59N 50°50' W 001°20'0 0.0
2018-Aug-10 14:30N 50°50' W 001°20'0 0.0
2018-Aug-10 14:00N 50°50' W 001°20'0 0.0
2018-Aug-10 13:30N 50°50' W 001°20'0 0.0
2018-Aug-10 13:00N 50°50' W 001°20'0 0.0
2018-Aug-10 12:30N 50°50' W 001°20'0 0.0
2018-Aug-10 12:01N 50°50' W 001°20'0 0.0
2018-Aug-10 11:31N 50°50' W 001°20'0 0.0
2018-Aug-10 11:00N 50°50' W 001°20'0 0.0
2018-Aug-10 10:30N 50°50' W 001°20'0 0.0
2018-Aug-10 09:59N 50°50' W 001°20'0 0.0
2018-Aug-10 09:30N 50°50' W 001°20'0 0.0
2018-Aug-10 09:00N 50°50' W 001°20'0 0.0
2018-Aug-10 08:30N 50°50' W 001°20'0 0.0
2018-Aug-10 08:00N 50°50' W 001°20'0 0.0
2018-Aug-10 07:30N 50°50' W 001°20'0 0.0
2018-Aug-10 07:01N 50°50' W 001°20'0 0.0
2018-Aug-10 06:30N 50°50' W 001°20'0 0.0
2018-Aug-10 06:00N 50°50' W 001°20'0 0.0
2018-Aug-10 05:30N 50°50' W 001°20'0 0.0
2018-Aug-10 04:59N 50°50' W 001°20'0 0.0
2018-Aug-10 04:30N 50°50' W 001°20'0 0.0
2018-Aug-10 04:00N 50°50' W 001°20'0 0.0
2018-Aug-10 03:31N 50°50' W 001°20'0 0.0
2018-Aug-10 03:00N 50°50' W 001°20'0 0.0
2018-Aug-10 02:30N 50°50' W 001°20'0 0.0
2018-Aug-10 02:00N 50°50' W 001°20'0 0.0
2018-Aug-10 01:30N 50°50' W 001°20'0 0.0
2018-Aug-10 01:00N 50°50' W 001°20'0 0.0
2018-Aug-10 00:30N 50°50' W 001°20'0 0.0
2018-Aug-10 00:01N 50°50' W 001°20'0 0.0
2018-Aug-09 23:31N 50°50' W 001°20'0 0.0
2018-Aug-09 23:01N 50°50' W 001°20'0 0.0
2018-Aug-09 22:30N 50°50' W 001°20'0 0.0
2018-Aug-09 22:00N 50°50' W 001°20'0 0.0
2018-Aug-09 21:31N 50°50' W 001°20'0 0.0
2018-Aug-09 21:00N 50°50' W 001°20'0 0.0
2018-Aug-09 20:31N 50°50' W 001°20'0 0.0
2018-Aug-09 20:00N 50°50' W 001°20'0 0.0
2018-Aug-09 19:30N 50°50' W 001°20'0 0.0
2018-Aug-09 19:00N 50°50' W 001°20'0 0.0
2018-Aug-09 18:30N 50°50' W 001°20'0 0.0
2018-Aug-09 18:00N 50°50' W 001°20'0 0.0
2018-Aug-09 17:30N 50°50' W 001°20'0 0.0
2018-Aug-09 17:00N 50°50' W 001°20'0 0.0
2018-Aug-09 16:29N 50°50' W 001°20'0 0.0
2018-Aug-09 16:00N 50°50' W 001°20'0 0.0
2018-Aug-09 15:30N 50°50' W 001°20'0 0.0
2018-Aug-09 15:01N 50°50' W 001°20'0 0.0
2018-Aug-09 14:30N 50°50' W 001°20'0 0.0
2018-Aug-09 13:59N 50°50' W 001°20'0 0.0
2018-Aug-09 13:30N 50°50' W 001°20'0 0.0
2018-Aug-09 13:00N 50°50' W 001°20'0 0.0
2018-Aug-09 12:29N 50°50' W 001°20'0 0.0
2018-Aug-09 12:00N 50°50' W 001°20'0 0.0
2018-Aug-09 11:28N 50°50' W 001°20'0 0.0
2018-Aug-09 11:00N 50°50' W 001°20'0 0.0
2018-Aug-09 10:28N 50°50' W 001°20'0 0.0
2018-Aug-09 09:59N 50°50' W 001°20'0 0.0
2018-Aug-09 09:31N 50°50' W 001°20'0 0.0
2018-Aug-09 09:00N 50°50' W 001°20'0 0.0
2018-Aug-09 08:30N 50°50' W 001°20'0 0.0
2018-Aug-09 08:01N 50°50' W 001°20'0 0.0
2018-Aug-09 07:30N 50°50' W 001°20'0 0.0
2018-Aug-09 07:00N 50°50' W 001°20'0 0.0
2018-Aug-09 06:30N 50°50' W 001°20'0 0.0
2018-Aug-09 06:00N 50°50' W 001°20'0 0.0
2018-Aug-09 05:30N 50°50' W 001°20'0 0.0
2018-Aug-09 05:01N 50°50' W 001°20'0 0.0
2018-Aug-09 04:31N 50°50' W 001°20'0 0.4
2018-Aug-09 04:01N 50°51' W 001°20'1 2.7
2018-Aug-09 03:30N 50°49' W 001°18'3 5.9
2018-Aug-09 03:01N 50°47' W 001°18'510.4
2018-Aug-09 02:31N 50°46' W 001°09'510.9
2018-Aug-09 02:00N 50°43' W 001°02'5 9.2
2018-Aug-09 01:31N 50°40' W 000°57'4 8.2
2018-Aug-09 01:01N 50°37' W 001°00'2 3.8
2018-Aug-09 00:31N 50°37' W 001°03'0 0.1
2018-Aug-09 00:00N 50°37' W 001°03'0 0.0
2018-Aug-08 23:30N 50°37' W 001°03'0 0.0
2018-Aug-08 23:00N 50°37' W 001°03'0 0.0
2018-Aug-08 22:30N 50°37' W 001°03'0 0.0
2018-Aug-08 22:00N 50°37' W 001°03'0 0.0
2018-Aug-08 21:30N 50°37' W 001°03'0 0.0
2018-Aug-08 21:00N 50°37' W 001°03'0 0.3
2018-Aug-08 20:30N 50°37' W 001°03'0 0.2
2018-Aug-08 20:00N 50°37' W 001°03'0 0.0
2018-Aug-08 19:30N 50°37' W 001°03'0 0.0
2018-Aug-08 19:00N 50°37' W 001°03'0 0.0
2018-Aug-08 18:30N 50°37' W 001°03'0 0.0
2018-Aug-08 18:00N 50°37' W 001°03'0 0.0
2018-Aug-08 17:30N 50°37' W 001°03'0 0.0
2018-Aug-08 17:00N 50°37' W 001°03'0 0.0
2018-Aug-08 16:30N 50°37' W 001°03'0 0.0
2018-Aug-08 16:00N 50°37' W 001°03'0 0.0
2018-Aug-08 15:30N 50°37' W 001°03'0 0.0
2018-Aug-08 15:00N 50°37' W 001°03'0 0.0
2018-Aug-08 14:30N 50°37' W 001°03'0 0.1
2018-Aug-08 14:00N 50°37' W 001°03'  

Dump ship's entire track history